Catlin, Indiana
Current Conditions -  °F | °C
As of 4:55 AM on Saturday 29 Nov 2014 (Local Time) from K4I7 Reporting Station
Clear Clear  
Wind Chill: 31°   Ceiling: Unl
Heat Index: 37°   Visibility: 10mi
Dew Point: 28°   Wind: 9mph
Humidity: 70%   Direction: 190°S
Pressure: 29.91"   Gusts: 16mph
Location:  39.7714°N, 87.1705°W
Report Text: K4I7 290955Z AUTO 19008G14KT 10SM CLR 03/M02 A2991 RMK AO2
Loading
Personal Weather Stations






























Interactive Weather Map New forecast layout! Learn more

10-Day Weather Forecast

Advertisements
Track Severe Weather on mobile